Terminal Aerodrome Forecast
Issued by NWS Los Angeles, CA

Home | Current Version | Previous Version | Text Only | Print | Product List | Glossary On
Versions: 1 2 3 4 5 6 7 8 9 10 11 12
269
FTUS46 KLOX 112349
TAFSMX
TAF
KSMX 112349Z 1200/1224 30009KT P6SM BKN250
     FM120300 VRB03KT 4SM BR BKN004 BKN250
      TEMPO 1211/1212 1/2SM FG VV001
     FM121700 31006KT P6SM BKN250
     FM122100 31010KT P6SM OVC200=

USA.gov is the U.S. government's official web portal to all federal, state and local government web resources and services.